Time;durP1;ratioP1;P1;durP2;ratioP2;P2;SDS_P1;SDS_P2;PMS_P1;PMS_P2;Temp;Humidity;BMP_temperature;BMP_pressure;BME280_temperature;BME280_humidity;BME280_pressure;Samples;Min_cycle;Max_cycle;Signal;HPM_P1;HPM_P2
2022/08/11 00:00:14;;;;;;;3.45;3.08;;;;;;;20.27;100.00;102082.91;5242300;28;20024;-80
2022/08/11 00:02:49;;;;;;;3.13;3.03;;;;;;;20.05;100.00;102047.78;5243195;28;20025;-79
2022/08/11 00:05:20;;;;;;;3.88;3.63;;;;;;;19.98;100.00;102042.63;5243324;28;20254;-79
2022/08/11 00:07:54;;;;;;;3.65;3.45;;;;;;;20.04;100.00;102055.19;5236736;28;20025;-79
2022/08/11 00:10:28;;;;;;;3.42;3.22;;;;;;;20.06;100.00;102063.94;5242190;28;20025;-80
2022/08/11 00:13:06;;;;;;;3.25;3.15;;;;;;;20.11;100.00;102068.56;5242110;28;20025;-80
2022/08/11 00:15:45;;;;;;;3.40;3.20;;;;;;;19.93;100.00;102048.16;5239332;28;20219;-80
2022/08/11 00:18:16;;;;;;;10.90;3.95;;;;;;;20.07;100.00;102079.28;5222886;28;20478;-79
2022/08/11 00:20:47;;;;;;;3.45;3.25;;;;;;;19.98;100.00;102081.03;5241672;28;20020;-82
2022/08/11 00:23:18;;;;;;;3.03;2.80;;;;;;;19.96;100.00;102077.75;5243553;28;20027;-80
2022/08/11 00:25:51;;;;;;;4.72;3.75;;;;;;;19.89;100.00;102066.34;5242426;28;20112;-80
2022/08/11 00:28:30;;;;;;;4.47;4.07;;;;;;;19.88;100.00;102054.53;5243434;28;20103;-81
2022/08/11 00:31:03;;;;;;;;;;;;;;;19.94;100.00;102076.41;5243194;28;20032;-80
2022/08/11 00:33:41;;;;;;;2.78;2.60;;;;;;;19.91;100.00;102074.28;5242415;28;19916;-80
2022/08/11 00:36:15;;;;;;;3.92;3.63;;;;;;;19.87;100.00;102072.09;5241495;28;20029;-79
2022/08/11 00:38:53;;;;;;;4.90;4.45;;;;;;;19.88;100.00;102075.66;5240795;28;20021;-80
2022/08/11 00:41:48;;;;;;;6.03;3.05;;;;;;;19.80;100.00;102079.03;5222848;28;20056;-79
2022/08/11 00:44:41;;;;;;;4.47;3.38;;;;;;;19.74;100.00;102080.97;5240028;28;20029;-80
2022/08/11 00:47:39;;;;;;;3.80;3.50;;;;;;;19.71;100.00;102076.06;5241208;28;20028;-81
2022/08/11 00:50:39;;;;;;;5.65;3.95;;;;;;;19.65;100.00;102087.38;5222826;28;20024;-79
2022/08/11 00:53:34;;;;;;;2.75;2.65;;;;;;;19.59;100.00;102083.06;5240318;28;20040;-79
2022/08/11 00:56:17;;;;;;;3.63;3.33;;;;;;;19.58;100.00;102081.41;5240619;28;20036;-79
2022/08/11 00:59:18;;;;;;;3.55;3.33;;;;;;;19.58;100.00;102092.38;5223059;28;20029;-79
2022/08/11 01:02:16;;;;;;;5.15;3.10;;;;;;;19.53;100.00;102085.84;5240324;28;20118;-79
2022/08/11 01:05:32;;;;;;;3.25;3.15;;;;;;;19.50;100.00;102080.06;5238999;28;20029;-79
2022/08/11 01:08:38;;;;;;;3.47;3.17;;;;;;;19.45;100.00;102086.41;5240302;28;20029;-79
2022/08/11 01:11:45;;;;;;;3.08;2.97;;;;;;;19.44;100.00;102084.75;5236610;28;20068;-79
2022/08/11 01:14:54;;;;;;;3.78;3.47;;;;;;;19.36;100.00;102085.38;5218379;28;20502;-79
2022/08/11 01:18:15;;;;;;;2.97;2.77;;;;;;;19.29;100.00;102084.88;5229791;28;20063;-79
2022/08/11 01:21:13;;;;;;;3.40;3.20;;;;;;;19.22;100.00;102085.22;5219497;28;20029;-80
2022/08/11 01:23:44;;;;;;;3.90;3.72;;;;;;;19.19;100.00;102084.94;5235922;28;20039;-82
2022/08/11 01:26:36;;;;;;;4.60;4.20;;;;;;;19.13;100.00;102086.91;5236532;28;20434;-80
2022/08/11 01:29:28;;;;;;;4.40;4.10;;;;;;;19.03;100.00;102088.91;5235508;28;20029;-79
2022/08/11 01:32:40;;;;;;;4.97;3.97;;;;;;;19.01;100.00;102089.19;5236044;28;20021;-80
2022/08/11 01:35:39;;;;;;;4.47;4.07;;;;;;;18.97;100.00;102085.38;5236118;28;20021;-80
2022/08/11 01:38:37;;;;;;;3.25;3.15;;;;;;;18.96;100.00;102091.13;5235353;28;20021;-80
2022/08/11 01:44:36;;;;;;;6.47;4.07;;;;;;;18.98;100.00;102083.44;5235541;28;20025;-80
2022/08/11 01:44:51;;;;;;;3.17;3.03;;;;;;;18.96;100.00;102085.66;5234564;28;20036;-80
2022/08/11 01:50:52;;;;;;;3.53;3.33;;;;;;;18.88;100.00;102085.13;5225898;28;20385;-80
2022/08/11 01:53:44;;;;;;;3.40;3.20;;;;;;;18.85;100.00;102077.47;5234386;28;20063;-80
2022/08/11 01:56:33;;;;;;;3.75;3.65;;;;;;;18.82;100.00;102085.44;5218679;28;20028;-80
2022/08/11 01:59:24;;;;;;;3.88;3.67;;;;;;;18.76;100.00;102092.06;5234702;28;20084;-80
2022/08/11 02:02:47;;;;;;;3.50;3.17;;;;;;;18.69;100.00;102086.06;5239882;28;20049;-80
2022/08/11 02:05:22;;;;;;;3.88;2.90;;;;;;;18.50;100.00;102074.88;5215591;28;20048;-80
2022/08/11 02:08:09;;;;;;;3.85;3.65;;;;;;;18.56;100.00;102096.47;5215568;28;20035;-80
2022/08/11 02:13:48;;;;;;;3.80;3.60;;;;;;;18.41;100.00;102085.59;5231232;28;20173;-79
2022/08/11 02:16:24;;;;;;;3.47;3.25;;;;;;;18.38;100.00;102096.28;5231328;28;20054;-79
2022/08/11 02:25:44;;;;;;;4.25;4.03;;;;;;;18.19;100.00;102094.09;5233658;28;20052;-79
2022/08/11 02:28:36;;;;;;;3.28;3.13;;;;;;;18.16;100.00;102094.69;5233369;28;20096;-80
2022/08/11 02:34:47;;;;;;;6.22;5.53;;;;;;;18.03;100.00;102094.44;5237052;28;20047;-80
2022/08/11 02:37:23;;;;;;;3.38;3.17;;;;;;;17.79;100.00;102064.13;5235853;28;20036;-80
2022/08/11 02:39:56;;;;;;;5.18;4.38;;;;;;;17.99;100.00;102091.41;5216615;28;20052;-80
2022/08/11 02:42:33;;;;;;;5.13;4.82;;;;;;;17.91;100.00;102077.50;5235414;28;20402;-80
2022/08/11 02:45:11;;;;;;;4.50;4.10;;;;;;;17.93;100.00;102083.50;5237634;28;20051;-80
2022/08/11 02:51:29;;;;;;;5.18;4.78;;;;;;;17.84;100.00;102075.88;5244469;28;20064;-80
2022/08/11 02:54:08;;;;;;;5.35;3.65;;;;;;;17.80;100.00;102080.25;5244279;28;20100;-80
2022/08/11 02:56:57;;;;;;;4.88;4.53;;;;;;;17.77;100.00;102079.97;5245803;28;20029;-80
2022/08/11 02:59:51;;;;;;;5.40;5.18;;;;;;;17.71;100.00;102087.34;5245315;28;20052;-80
2022/08/11 03:02:36;;;;;;;4.15;3.78;;;;;;;17.69;100.00;102080.53;5245278;28;20100;-79
2022/08/11 03:05:16;;;;;;;4.95;4.55;;;;;;;17.67;100.00;102086.25;5244164;28;20044;-80
2022/08/11 03:07:55;;;;;;;18.17;5.32;;;;;;;17.63;100.00;102084.31;5244428;28;20020;-80
2022/08/11 03:10:31;;;;;;;4.72;4.43;;;;;;;17.59;100.00;102085.97;5245882;28;20033;-80
2022/08/11 03:19:09;;;;;;;4.22;3.92;;;;;;;17.48;100.00;102082.41;5236256;28;20033;-80
2022/08/11 03:21:54;;;;;;;4.22;3.92;;;;;;;17.44;100.00;102087.59;5236867;28;20025;-80
2022/08/11 03:24:32;;;;;;;5.53;5.22;;;;;;;17.32;100.00;102067.94;5235144;28;20025;-80
2022/08/11 03:27:40;;;;;;;4.65;4.25;;;;;;;17.41;100.00;102088.13;5220857;28;20506;-80
2022/08/11 03:30:22;;;;;;;7.53;4.00;;;;;;;17.34;100.00;102073.91;5237930;28;20085;-80
2022/08/11 03:36:10;;;;;;;4.82;4.50;;;;;;;17.28;100.00;102082.41;5244188;28;20055;-80
2022/08/11 03:38:50;;;;;;;8.88;4.30;;;;;;;17.24;100.00;102082.13;5244712;28;20104;-80
2022/08/11 03:41:43;;;;;;;8.55;4.70;;;;;;;17.17;100.00;102074.19;5244582;28;20060;-79
2022/08/11 03:44:35;;;;;;;4.07;3.85;;;;;;;17.17;100.00;102078.81;5225294;28;20055;-80
2022/08/11 03:47:44;;;;;;;4.10;3.90;;;;;;;17.12;100.00;102081.53;5244216;28;20037;-80
2022/08/11 03:50:29;;;;;;;5.63;5.22;;;;;;;17.10;100.00;102084.53;5205463;28;20394;-79
2022/08/11 03:53:15;;;;;;;12.65;5.10;;;;;;;17.10;100.00;102081.00;5236427;28;20025;-79
2022/08/11 03:56:20;;;;;;;4.53;4.22;;;;;;;17.09;100.00;102079.34;5236965;28;20048;-79
2022/08/11 03:59:21;;;;;;;4.03;3.83;;;;;;;16.88;100.00;102048.47;5220798;28;20025;-80
2022/08/11 04:01:58;;;;;;;7.57;4.47;;;;;;;17.03;100.00;102083.19;5236154;28;20032;-79
2022/08/11 04:05:06;;;;;;;3.47;3.28;;;;;;;17.00;100.00;102086.44;5234982;28;20025;-79
2022/08/11 04:08:14;;;;;;;3.83;3.63;;;;;;;16.97;100.00;102087.78;5235092;28;20033;-79
2022/08/11 04:10:53;;;;;;;4.28;3.88;;;;;;;16.94;100.00;102087.50;5216530;28;20024;-79
2022/08/11 04:13:39;;;;;;;4.18;3.85;;;;;;;16.91;100.00;102088.03;5233987;28;20083;-79
2022/08/11 04:16:40;;;;;;;5.47;5.07;;;;;;;16.91;100.00;102082.59;5216847;28;20033;-80
2022/08/11 04:19:14;;;;;;;6.57;4.93;;;;;;;16.88;100.00;102078.47;5232789;28;20544;-79
2022/08/11 04:22:00;;;;;;;8.88;4.88;;;;;;;16.86;100.00;102080.66;5213592;28;20029;-81
2022/08/11 04:25:04;;;;;;;4.75;4.18;;;;;;;16.84;100.00;102082.84;5232664;28;20025;-81
2022/08/11 04:27:58;;;;;;;4.20;3.85;;;;;;;16.83;100.00;102086.66;5241305;28;20479;-81
2022/08/11 04:30:55;;;;;;;4.30;4.10;;;;;;;16.79;100.00;102077.34;5239130;28;20017;-80
2022/08/11 04:33:41;;;;;;;5.82;4.28;;;;;;;16.83;100.00;102086.66;5239525;28;20031;-81
2022/08/11 04:37:30;;;;;;;6.20;5.85;;;;;;;16.83;100.00;102084.75;5239527;28;20486;-80
2022/08/11 04:39:51;;;;;;;4.68;4.35;;;;;;;16.85;100.00;102082.56;5238106;28;20029;-80
2022/08/11 04:45:51;;;;;;;7.03;4.53;;;;;;;16.88;100.00;102089.41;5239046;28;20048;-80
2022/08/11 05:01:39;;;;;;;7.78;5.68;;;;;;;16.91;100.00;102088.03;5237718;28;20040;-80
2022/08/11 05:02:16;;;;;;;6.37;4.93;;;;;;;16.87;100.00;102091.31;5241152;28;20083;-80
2022/08/11 05:08:15;;;;;;;4.38;4.07;;;;;;;16.87;100.00;102087.75;5235965;28;20114;-79
2022/08/11 05:11:23;;;;;;;5.30;4.93;;;;;;;16.91;100.00;102090.78;5215907;28;20513;-80
2022/08/11 05:34:52;;;;;;;10.02;6.88;;;;;;;17.35;100.00;102086.47;5257633;28;20055;-80
2022/08/11 05:37:29;;;;;;;6.70;5.93;;;;;;;17.48;100.00;102102.34;5242243;28;20046;-81
2022/08/11 05:57:29;;;;;;;7.35;6.65;;;;;;;17.84;100.00;102107.84;5260701;28;20107;-82
2022/08/11 06:00:04;;;;;;;7.70;7.10;;;;;;;17.84;100.00;102092.28;5259993;28;20038;-81
2022/08/11 06:02:40;;;;;;;6.35;5.85;;;;;;;17.97;100.00;102104.53;5258486;28;20028;-82
2022/08/11 06:05:11;;;;;;;7.57;6.95;;;;;;;17.95;100.00;102090.34;5259056;28;20040;-82
2022/08/11 06:07:44;;;;;;;16.25;6.78;;;;;;;17.94;100.00;102087.88;5259180;28;20497;-84
2022/08/11 06:10:26;;;;;;;6.95;6.28;;;;;;;18.11;100.00;102096.63;5257460;28;20020;-81
2022/08/11 06:12:57;;;;;;;6.88;6.13;;;;;;;18.10;100.00;102090.31;5255613;28;20013;-80
2022/08/11 06:15:30;;;;;;;6.07;4.75;;;;;;;18.14;100.00;102085.94;5255831;28;20055;-80
2022/08/11 06:18:02;;;;;;;11.65;6.57;;;;;;;18.05;100.00;102063.00;5257615;28;20025;-84
2022/08/11 06:21:01;;;;;;;12.45;5.20;;;;;;;18.32;100.00;102092.72;5258103;28;20020;-82
2022/08/11 06:23:33;;;;;;;6.27;5.67;;;;;;;18.40;100.00;102094.06;5256473;28;20024;-81
2022/08/11 06:26:11;;;;;;;5.90;5.47;;;;;;;18.36;100.00;102076.56;5257754;28;20029;-81
2022/08/11 06:28:45;;;;;;;6.60;5.95;;;;;;;18.47;100.00;102089.13;5256642;28;20105;-79
2022/08/11 06:31:22;;;;;;;6.80;6.30;;;;;;;18.57;100.00;102100.03;5255904;28;20027;-81
2022/08/11 06:33:53;;;;;;;7.05;6.50;;;;;;;18.68;100.00;102103.56;5239104;28;20036;-82
2022/08/11 06:36:45;;;;;;;6.13;5.68;;;;;;;18.50;100.00;102062.00;5257769;28;20028;-81
2022/08/11 06:39:43;;;;;;;12.23;6.53;;;;;;;18.83;100.00;102090.63;5257941;28;20478;-80
2022/08/11 06:42:37;;;;;;;9.43;6.38;;;;;;;18.94;100.00;102105.09;5256810;28;20113;-80
2022/08/11 06:45:16;;;;;;;9.07;6.28;;;;;;;19.03;100.00;102097.94;5256192;28;20029;-80
2022/08/11 06:47:47;;;;;;;8.27;7.78;;;;;;;19.02;100.00;102077.13;5256570;28;20032;-82
2022/08/11 06:53:11;;;;;;;8.10;7.43;;;;;;;19.16;100.00;102085.50;5256108;28;20032;-80
2022/08/11 07:01:49;;;;;;;6.28;5.88;;;;;;;19.80;100.00;102100.94;5256717;28;20048;-81
2022/08/11 07:04:34;;;;;;;6.43;6.03;;;;;;;19.66;100.00;102054.19;5257131;28;20051;-81
2022/08/11 07:15:54;;;;;;;15.30;7.60;;;;;;;20.70;100.00;102106.59;5255009;28;20029;-80
2022/08/11 07:30:07;;;;;;;6.25;5.45;;;;;;;22.39;100.00;102097.31;5253885;28;20379;-80
2022/08/11 07:32:49;;;;;;;6.60;5.63;;;;;;;22.68;100.00;102092.28;5250820;28;20052;-79
2022/08/11 07:35:31;;;;;;;13.68;6.72;;;;;;;22.97;100.00;102102.97;5253518;28;20020;-79
2022/08/11 07:38:06;;;;;;;8.88;7.38;;;;;;;23.23;100.00;102092.19;5250372;28;20028;-79
2022/08/11 07:40:37;;;;;;;4.93;4.63;;;;;;;23.48;100.00;102091.56;5250902;28;20405;-80
2022/08/11 07:43:10;;;;;;;7.95;6.50;;;;;;;23.63;100.00;102092.38;5250817;28;20093;-79
2022/08/11 07:54:12;;;;;;;11.38;6.65;;;;;;;24.55;95.69;102081.28;5247159;28;20095;-78
2022/08/11 07:56:44;;;;;;;6.18;5.55;;;;;;;24.65;93.93;102105.03;5231704;28;20035;-81
2022/08/11 08:19:04;;;;;;;6.22;5.70;;;;;;;25.88;85.45;102091.75;5260850;28;20060;-81
2022/08/11 08:21:35;;;;;;;5.13;4.82;;;;;;;26.04;83.21;102089.25;5266116;28;20391;-80
2022/08/11 08:24:06;;;;;;;5.28;4.78;;;;;;;26.09;83.54;102070.50;5264214;28;20033;-79
2022/08/11 08:32:27;;;;;;;4.45;4.18;;;;;;;26.23;81.72;102056.44;5267645;28;20035;-82
2022/08/11 08:34:58;;;;;;;4.95;4.55;;;;;;;26.24;80.44;102061.66;5251588;28;20020;-82
2022/08/11 08:37:29;;;;;;;9.45;4.65;;;;;;;26.44;80.07;102081.44;5252376;28;20004;-82
2022/08/11 08:39:59;;;;;;;7.93;5.20;;;;;;;26.44;79.70;102082.25;5251714;28;20058;-83
2022/08/11 08:42:34;;;;;;;3.92;3.63;;;;;;;26.64;79.49;102080.66;5246971;28;20054;-83
2022/08/11 08:45:11;;;;;;;5.35;4.30;;;;;;;26.71;76.70;102075.41;5264014;28;20065;-82
2022/08/11 08:47:46;;;;;;;7.55;4.35;;;;;;;26.90;77.68;102095.16;5270309;28;20497;-82
2022/08/11 08:50:22;;;;;;;4.68;4.38;;;;;;;27.06;75.34;102091.84;5254554;28;20047;-83
2022/08/11 08:52:57;;;;;;;8.55;4.75;;;;;;;27.19;75.98;102097.09;5272320;28;20051;-83
2022/08/11 08:55:28;;;;;;;4.20;4.00;;;;;;;27.30;74.59;102086.41;5254393;28;20107;-83
2022/08/11 08:58:00;;;;;;;4.20;3.92;;;;;;;27.38;74.12;102093.84;5272625;28;20016;-82
2022/08/11 09:00:39;;;;;;;4.10;3.80;;;;;;;27.52;73.00;102085.22;5271395;28;20136;-83
2022/08/11 09:03:11;;;;;;;15.85;6.07;;;;;;;27.63;72.27;102077.31;5269222;28;20028;-83
2022/08/11 09:05:42;;;;;;;5.53;5.18;;;;;;;27.27;71.48;102062.13;5252772;28;20024;-83
2022/08/11 09:08:16;;;;;;;4.97;4.65;;;;;;;27.12;71.12;102043.34;5270630;28;20062;-82
2022/08/11 09:11:48;;;;;;;4.10;3.80;;;;;;;27.41;70.03;102098.72;5252378;28;20024;-81
2022/08/11 09:13:43;;;;;;;3.92;3.63;;;;;;;27.72;69.98;102086.38;5270569;28;20096;-82
2022/08/11 09:16:15;;;;;;;4.53;4.00;;;;;;;27.69;67.81;102082.31;5252698;28;20012;-83
2022/08/11 09:18:46;;;;;;;5.22;4.63;;;;;;;27.55;68.19;102063.13;5248278;28;20028;-83
2022/08/11 09:21:22;;;;;;;4.35;4.05;;;;;;;27.72;66.37;102076.03;5263123;28;20020;-84
2022/08/11 09:27:02;;;;;;;4.95;4.55;;;;;;;27.54;64.08;102036.53;5262039;28;20059;-83
2022/08/11 09:29:33;;;;;;;5.72;5.43;;;;;;;27.91;63.92;102069.97;5244934;28;20025;-82
2022/08/11 09:32:05;;;;;;;5.90;3.42;;;;;;;27.98;63.48;102039.69;5261571;28;20024;-83
2022/08/11 09:34:37;;;;;;;5.63;5.07;;;;;;;28.12;64.29;102033.75;5244099;28;20021;-83
2022/08/11 09:45:39;;;;;;;3.60;3.22;;;;;;;28.61;62.54;102006.75;5259006;28;20035;-84
2022/08/11 09:48:11;;;;;;;5.90;3.65;;;;;;;28.77;61.56;102034.66;5260189;28;20020;-83
2022/08/11 09:50:41;;;;;;;4.53;4.22;;;;;;;28.79;61.75;102021.22;5258472;28;20029;-83
2022/08/11 09:53:15;;;;;;;11.55;5.28;;;;;;;29.14;61.46;102055.66;5261332;28;20035;-84
2022/08/11 09:55:47;;;;;;;8.30;4.95;;;;;;;29.16;61.14;102056.09;5260901;28;20024;-83
2022/08/11 09:58:20;;;;;;;5.07;4.15;;;;;;;29.09;61.53;102055.91;5263130;28;20024;-84
2022/08/11 10:00:57;;;;;;;18.17;4.53;;;;;;;28.97;62.05;102039.25;5262792;28;20040;-84
2022/08/11 10:03:30;;;;;;;6.95;4.88;;;;;;;28.88;61.68;102041.34;5245577;28;20091;-85
2022/08/11 10:08:54;;;;;;;17.58;5.78;;;;;;;29.11;61.33;102033.28;5262586;28;20142;-83
2022/08/11 10:11:26;;;;;;;5.18;4.80;;;;;;;28.93;61.13;102002.16;5260450;28;20050;-82
2022/08/11 10:16:49;;;;;;;4.72;3.85;;;;;;;29.06;57.67;102005.72;5259476;28;20060;-81
2022/08/11 10:19:21;;;;;;;3.40;3.10;;;;;;;29.24;57.28;102034.84;5242709;28;20028;-82
2022/08/11 10:27:33;;;;;;;5.82;3.80;;;;;;;29.10;57.39;102009.41;5260861;28;20248;-81
2022/08/11 10:35:48;;;;;;;3.42;3.22;;;;;;;29.52;56.48;102010.59;5258666;28;20068;-84
2022/08/11 10:38:25;;;;;;;4.15;3.60;;;;;;;29.70;56.26;102021.41;5259519;28;20024;-81
2022/08/11 10:43:46;;;;;;;4.97;4.68;;;;;;;29.58;56.04;101974.16;5261153;28;20039;-83
2022/08/11 10:49:13;;;;;;;6.35;4.38;;;;;;;29.75;55.37;102004.41;5260738;28;20106;-82
2022/08/11 11:00:16;;;;;;;4.07;3.88;;;;;;;30.12;55.16;101986.28;5259623;28;20044;-81
2022/08/11 11:02:48;;;;;;;4.90;4.55;;;;;;;30.04;55.71;101909.25;5260574;28;20027;-81
2022/08/11 11:05:27;;;;;;;5.05;3.15;;;;;;;30.53;53.88;101986.81;5240885;28;20032;-81
2022/08/11 11:08:51;;;;;;;6.40;5.90;;;;;;;30.50;54.65;101979.16;5260293;28;20021;-81
2022/08/11 11:11:03;;;;;;;3.80;3.50;;;;;;;30.58;53.75;101955.06;5259733;28;20071;-81
2022/08/11 11:19:23;;;;;;;5.53;4.95;;;;;;;30.52;52.45;101960.09;5258761;28;20031;-82
2022/08/11 11:22:37;;;;;;;4.67;4.37;;;;;;;30.51;51.58;101956.50;5241655;28;20049;-82
2022/08/11 11:25:08;;;;;;;11.82;4.38;;;;;;;30.59;52.17;101970.63;5259852;28;20093;-81
2022/08/11 11:28:08;;;;;;;4.93;4.63;;;;;;;31.00;52.29;101960.69;5260840;28;20036;-81
2022/08/11 11:30:57;;;;;;;7.40;3.47;;;;;;;31.29;50.99;101982.41;5261173;28;20021;-81
2022/08/11 11:33:36;;;;;;;;;;;;;;;31.50;50.70;101962.44;5241590;28;20024;-80
2022/08/11 11:36:44;;;;;;;7.28;4.38;;;;;;;31.34;49.60;101961.78;5261003;28;20012;-81
2022/08/11 11:39:24;;;;;;;4.25;3.65;;;;;;;31.16;49.95;101956.69;5242154;28;20023;-82
2022/08/11 11:41:59;;;;;;;3.75;3.53;;;;;;;31.25;50.29;101938.88;5258942;28;20028;-80
2022/08/11 11:44:31;;;;;;;9.93;3.50;;;;;;;31.34;48.32;101947.81;5258368;28;20085;-81
2022/08/11 11:47:02;;;;;;;3.88;3.67;;;;;;;31.55;48.22;101954.56;5259487;28;20025;-81
2022/08/11 11:49:38;;;;;;;4.20;3.97;;;;;;;31.45;48.11;101943.22;5262822;28;20027;-82
2022/08/11 11:52:16;;;;;;;3.25;3.05;;;;;;;31.24;48.38;101893.41;5263488;28;20028;-82
2022/08/11 11:54:49;;;;;;;4.85;3.75;;;;;;;31.61;48.53;101920.75;5263970;28;20087;-80
2022/08/11 12:03:05;;;;;;;4.53;3.97;;;;;;;32.19;44.84;101916.47;5264395;28;20072;-81
2022/08/11 12:05:39;;;;;;;3.88;3.58;;;;;;;31.83;45.67;101931.91;5262336;28;20517;-81
2022/08/11 12:08:18;;;;;;;6.32;4.93;;;;;;;31.82;45.04;101946.25;5263099;28;20019;-81
2022/08/11 12:14:09;;;;;;;3.75;3.55;;;;;;;31.61;45.04;101929.13;5263829;28;20468;-81
2022/08/11 12:16:42;;;;;;;6.20;3.25;;;;;;;31.70;44.81;101924.13;5265131;28;20482;-81
2022/08/11 12:19:20;;;;;;;5.13;4.82;;;;;;;31.70;44.28;101927.72;5264462;28;20025;-81
2022/08/11 12:27:34;;;;;;;4.30;3.45;;;;;;;31.84;44.01;101857.28;5264457;28;20039;-81
2022/08/11 12:30:07;;;;;;;2.60;2.45;;;;;;;32.37;44.67;101915.91;5263965;28;20020;-82
2022/08/11 12:32:42;;;;;;;3.50;3.30;;;;;;;32.60;44.44;101911.03;5264101;28;20098;-82
2022/08/11 12:35:14;;;;;;;4.32;4.07;;;;;;;32.71;44.65;101895.16;5261763;28;20029;-83
2022/08/11 12:37:50;;;;;;;5.35;4.85;;;;;;;33.07;43.62;101915.16;5260936;28;20069;-83
2022/08/11 12:46:18;;;;;;;8.45;5.63;;;;;;;33.26;44.14;101903.75;5263372;28;20129;-82
2022/08/11 12:51:57;;;;;;;4.03;3.65;;;;;;;33.22;42.79;101888.91;5263166;28;20055;-80
2022/08/11 12:54:33;;;;;;;2.80;2.67;;;;;;;32.80;42.01;101887.31;5245038;28;20024;-82
2022/08/11 13:05:41;;;;;;;4.80;3.88;;;;;;;32.65;43.65;101885.50;5263095;28;20146;-81
2022/08/11 13:08:16;;;;;;;4.22;3.85;;;;;;;33.20;42.54;101854.91;5262544;28;20024;-82
2022/08/11 13:13:43;;;;;;;4.60;4.15;;;;;;;33.83;42.36;101870.59;5262356;28;20065;-83
2022/08/11 13:16:15;;;;;;;3.00;2.80;;;;;;;33.89;41.32;101843.81;5261811;28;20020;-81
2022/08/11 13:18:47;;;;;;;4.82;3.35;;;;;;;34.27;41.18;101853.63;5245550;28;20032;-82
2022/08/11 13:21:18;;;;;;;3.53;3.30;;;;;;;34.14;40.13;101858.75;5262452;28;20024;-82
2022/08/11 13:23:53;;;;;;;9.48;4.78;;;;;;;34.18;40.07;101868.00;5244174;28;20087;-82
2022/08/11 13:26:23;;;;;;;3.15;2.95;;;;;;;33.77;39.94;101818.94;5261836;28;20017;-81
2022/08/11 13:28:54;;;;;;;3.35;3.15;;;;;;;34.24;40.76;101839.59;5261705;28;20024;-81
2022/08/11 13:31:25;;;;;;;5.07;3.72;;;;;;;34.59;39.84;101848.16;5261358;28;20074;-81
2022/08/11 13:33:55;;;;;;;2.92;2.72;;;;;;;34.33;39.32;101848.47;5259473;28;20025;-82
2022/08/11 13:36:27;;;;;;;8.55;4.32;;;;;;;34.32;39.96;101846.88;5260476;28;20044;-81
2022/08/11 13:38:58;;;;;;;13.82;4.35;;;;;;;34.07;39.16;101813.09;5241199;28;20020;-81
2022/08/11 13:41:39;;;;;;;3.78;3.58;;;;;;;33.83;38.59;101825.78;5240065;28;20024;-83
2022/08/11 13:44:15;;;;;;;4.07;3.78;;;;;;;33.61;38.82;101833.22;5255712;28;20100;-82
2022/08/11 13:46:47;;;;;;;3.47;3.17;;;;;;;33.42;38.82;101834.31;5254259;28;20020;-81
2022/08/11 13:49:19;;;;;;;3.85;3.42;;;;;;;33.68;38.65;101818.47;5251292;28;20024;-82
2022/08/11 13:51:51;;;;;;;3.42;3.22;;;;;;;33.83;38.44;101814.56;5241762;28;20027;-81
2022/08/11 13:54:24;;;;;;;3.38;3.08;;;;;;;34.32;39.02;101842.06;5262121;28;20028;-82
2022/08/11 13:56:59;;;;;;;6.78;4.00;;;;;;;33.96;38.18;101838.28;5244983;28;20084;-83
2022/08/11 13:59:30;;;;;;;4.10;3.90;;;;;;;33.75;38.34;101812.91;5262384;28;20041;-83
2022/08/11 14:02:04;;;;;;;9.43;4.45;;;;;;;33.86;38.63;101831.41;5245508;28;20032;-83
2022/08/11 14:04:39;;;;;;;3.38;3.17;;;;;;;34.08;38.43;101831.50;5244046;28;20055;-83
2022/08/11 14:07:13;;;;;;;3.72;3.45;;;;;;;34.04;37.81;101827.91;5260489;28;20024;-83
2022/08/11 14:09:45;;;;;;;4.13;3.72;;;;;;;34.06;37.88;101829.13;5261104;28;20048;-83
2022/08/11 14:15:31;;;;;;;3.40;3.20;;;;;;;33.71;38.30;101764.47;5259803;28;20047;-84
2022/08/11 14:18:16;;;;;;;4.22;3.58;;;;;;;34.34;38.03;101799.59;5246236;28;20024;-83
2022/08/11 14:23:49;;;;;;;5.57;3.88;;;;;;;34.25;37.86;101780.31;5261835;28;20031;-83
2022/08/11 14:26:27;;;;;;;7.35;4.63;;;;;;;34.14;37.55;101763.44;5261873;28;20047;-83
2022/08/11 14:29:03;;;;;;;5.57;3.53;;;;;;;33.99;37.57;101801.03;5261373;28;20394;-84
2022/08/11 14:31:37;;;;;;;4.32;3.10;;;;;;;33.70;37.21;101776.88;5262079;28;20052;-83
2022/08/11 14:34:13;;;;;;;5.43;3.15;;;;;;;33.87;37.58;101790.16;5261089;28;20026;-83
2022/08/11 14:36:49;;;;;;;4.80;3.97;;;;;;;33.72;37.81;101760.47;5262574;28;20024;-83
2022/08/11 14:39:26;;;;;;;6.93;4.07;;;;;;;33.99;37.59;101789.03;5262282;28;20031;-84
2022/08/11 14:47:03;;;;;;;3.40;2.75;;;;;;;33.64;37.75;101796.03;5259272;28;20021;-84
2022/08/11 14:47:56;;;;;;;5.38;2.88;;;;;;;33.58;37.76;101760.38;5259864;28;20100;-84
2022/08/11 14:50:28;;;;;;;9.57;3.22;;;;;;;33.77;37.04;101737.69;5241405;28;20111;-84
2022/08/11 14:53:03;;;;;;;3.88;3.67;;;;;;;33.75;37.17;101774.50;5241150;28;20047;-83
2022/08/11 14:58:29;;;;;;;3.15;2.95;;;;;;;33.85;36.41;101806.56;5277392;22;20159;-63
2022/08/11 15:01:01;;;;;;;3.58;3.33;;;;;;;33.71;36.79;101787.69;5235502;28;20472;-61
2022/08/11 15:03:34;;;;;;;3.60;3.40;;;;;;;33.85;36.73;101770.16;5222984;28;20025;-61
2022/08/11 15:06:05;;;;;;;8.20;4.25;;;;;;;33.87;37.02;101788.19;5222996;28;20021;-59
2022/08/11 15:08:53;;;;;;;6.43;4.43;;;;;;;33.76;36.93;101758.47;5222940;28;20119;-61
2022/08/11 15:17:09;;;;;;;3.03;2.92;;;;;;;33.18;36.89;101743.31;5223074;28;20048;-60
2022/08/11 15:25:20;;;;;;;6.78;4.25;;;;;;;34.37;37.58;101776.34;5210759;28;20040;-60
2022/08/11 15:39:16;;;;;;;3.75;3.53;;;;;;;33.99;37.52;101767.41;5226624;28;20061;-61
2022/08/11 15:47:44;;;;;;;4.68;4.28;;;;;;;34.05;38.09;101760.22;5226737;28;20040;-62
2022/08/11 15:50:19;;;;;;;4.15;2.95;;;;;;;34.05;38.07;101767.84;5226190;28;20021;-62
2022/08/11 15:52:54;;;;;;;3.78;3.58;;;;;;;34.05;38.62;101757.44;5226404;28;20020;-62
2022/08/11 15:55:28;;;;;;;2.80;2.70;;;;;;;34.07;37.92;101746.59;5225878;28;20521;-62
2022/08/11 16:04:10;;;;;;;3.45;3.17;;;;;;;33.98;38.34;101757.41;5226475;28;20055;-61
2022/08/11 16:06:49;;;;;;;3.35;3.22;;;;;;;33.71;38.35;101728.03;5226091;28;20082;-62
2022/08/11 16:09:25;;;;;;;3.67;3.47;;;;;;;33.59;38.58;101754.38;5208302;28;20027;-62
2022/08/11 16:12:00;;;;;;;7.95;4.82;;;;;;;33.31;39.08;101745.81;5208225;28;20029;-61
2022/08/11 16:17:26;;;;;;;4.40;4.10;;;;;;;33.49;38.71;101741.94;5209476;28;20040;-61
2022/08/11 16:19:58;;;;;;;4.85;4.43;;;;;;;33.36;38.34;101746.25;5207853;28;20025;-62
2022/08/11 16:22:43;;;;;;;3.60;3.42;;;;;;;33.09;38.18;101736.44;5226008;28;20088;-62
2022/08/11 16:25:18;;;;;;;4.57;4.25;;;;;;;33.13;37.79;101726.09;5225217;28;20449;-59
2022/08/11 16:27:56;;;;;;;4.00;3.80;;;;;;;32.86;38.09;101728.28;5225799;28;20086;-61
2022/08/11 16:30:28;;;;;;;6.72;3.97;;;;;;;32.60;38.53;101728.44;5223995;28;20021;-61
2022/08/11 16:33:00;;;;;;;3.72;2.75;;;;;;;32.93;38.58;101725.53;5225607;28;20021;-61
2022/08/11 16:38:34;;;;;;;3.92;3.72;;;;;;;32.90;38.70;101733.91;5225744;28;20545;-61
2022/08/11 16:41:06;;;;;;;11.93;4.10;;;;;;;32.73;39.12;101736.13;5225801;28;20033;-61
2022/08/11 16:49:14;;;;;;;3.17;2.97;;;;;;;32.97;38.67;101731.16;5225904;28;20037;-62
2022/08/11 16:51:44;;;;;;;5.37;3.70;;;;;;;32.71;38.55;101732.91;5207614;28;20480;-61
2022/08/11 16:54:15;;;;;;;3.35;3.05;;;;;;;32.57;39.03;101723.63;5224807;28;20263;-60
2022/08/11 16:56:49;;;;;;;3.80;3.55;;;;;;;32.63;38.93;101728.44;5225427;28;20028;-61
2022/08/11 16:59:30;;;;;;;3.85;3.60;;;;;;;32.75;38.19;101722.59;5224948;28;20120;-60
2022/08/11 17:02:06;;;;;;;6.50;3.35;;;;;;;32.73;38.45;101727.75;5225209;28;20033;-61
2022/08/11 17:13:34;;;;;;;6.03;3.60;;;;;;;32.40;38.80;101727.84;5224704;28;20349;-60
2022/08/11 17:16:10;;;;;;;3.53;3.15;;;;;;;32.11;39.20;101727.50;5224148;28;20021;-61
2022/08/11 17:18:47;;;;;;;3.35;3.15;;;;;;;32.14;39.37;101723.16;5206484;28;20036;-61